createdAt,value
2019-02-17T00:00:52.046Z,78.06
2019-02-17T00:01:52.036Z,78.58
2019-02-17T00:02:52.027Z,78.17
2019-02-17T00:03:52.004Z,78.79
2019-02-17T00:04:51.996Z,77.96
2019-02-17T00:05:51.983Z,77.75
2019-02-17T00:06:51.972Z,77.86
2019-02-17T00:07:51.961Z,78.10
2019-02-17T00:08:51.969Z,77.58
2019-02-17T00:09:51.939Z,77.89
2019-02-17T00:10:51.927Z,78.10
2019-02-17T00:11:51.920Z,78.41
2019-02-17T00:12:51.909Z,77.89
2019-02-17T00:13:51.895Z,78.83
2019-02-17T00:14:51.896Z,78.52
2019-02-17T00:15:51.874Z,78.31
2019-02-17T00:16:51.862Z,78.41
2019-02-17T00:17:51.860Z,79.03
2019-02-17T00:18:51.842Z,79.24
2019-02-17T00:19:51.833Z,78.97
2019-02-17T00:20:51.845Z,78.97
2019-02-17T00:21:51.810Z,79.45
2019-02-17T00:22:51.801Z,79.24
2019-02-17T00:23:51.790Z,79.03
2019-02-17T00:24:51.778Z,79.07
2019-02-17T00:25:51.768Z,78.93
2019-02-17T00:26:51.766Z,79.59
2019-02-17T00:27:51.745Z,79.76
2019-02-17T00:28:59.207Z,79.45
2019-02-17T00:29:52.722Z,78.41
2019-02-17T00:30:51.713Z,78.62
2019-02-17T00:31:51.702Z,78.20
2019-02-17T00:32:51.701Z,78.10
2019-02-17T00:33:51.681Z,77.58
2019-02-17T00:34:51.669Z,78.62
2019-02-17T00:35:51.659Z,78.41
2019-02-17T00:36:51.649Z,78.31
2019-02-17T00:37:51.645Z,78.72
2019-02-17T00:38:51.650Z,78.31
2019-02-17T00:39:51.617Z,79.07
2019-02-17T00:40:51.604Z,79.59
2019-02-17T00:41:51.602Z,79.76
2019-02-17T00:42:51.583Z,79.87
2019-02-17T00:43:51.573Z,79.14
2019-02-17T00:44:51.574Z,79.03
2019-02-17T00:45:51.553Z,79.28
2019-02-17T00:46:51.545Z,78.31
2019-02-17T00:47:51.534Z,78.76
2019-02-17T00:48:51.519Z,78.66
2019-02-17T00:49:51.514Z,79.24
2019-02-17T00:50:51.507Z,79.03
2019-02-17T00:51:51.488Z,79.24
2019-02-17T00:52:51.492Z,78.93
2019-02-17T00:53:51.470Z,78.31
2019-02-17T00:54:51.452Z,77.79
2019-02-17T00:55:51.443Z,78.20
2019-02-17T00:56:51.459Z,78.31
2019-02-17T00:57:51.420Z,78.41
2019-02-17T00:58:51.429Z,78.62
2019-02-17T00:59:51.399Z,78.31
2019-02-17T01:00:51.396Z,78.55
2019-02-17T01:01:51.384Z,78.86
2019-02-17T01:02:51.382Z,78.34
2019-02-17T01:03:51.367Z,78.97
2019-02-17T01:04:51.357Z,79.17
2019-02-17T01:05:51.339Z,79.07
2019-02-17T01:06:51.335Z,79.00
2019-02-17T01:07:51.317Z,79.52
2019-02-17T01:08:51.318Z,79.73
2019-02-17T01:09:51.295Z,79.63
2019-02-17T01:10:51.284Z,79.73
2019-02-17T01:11:51.273Z,80.36
2019-02-17T01:12:51.264Z,80.36
2019-02-17T01:13:51.255Z,80.36
2019-02-17T01:14:51.253Z,80.46
2019-02-17T01:15:51.244Z,80.26
2019-02-17T01:16:51.220Z,80.46
2019-02-17T01:17:51.210Z,80.67
2019-02-17T01:18:51.201Z,80.60
2019-02-17T01:19:51.197Z,81.02
2019-02-17T01:20:51.195Z,82.20
2019-02-17T01:21:51.183Z,82.93
2019-02-17T01:22:51.161Z,83.28
2019-02-17T01:23:51.153Z,83.97
2019-02-17T01:24:51.141Z,84.39
2019-02-17T01:25:51.132Z,83.76
2019-02-17T01:26:51.134Z,83.76
2019-02-17T01:27:51.103Z,84.60
2019-02-17T01:28:51.094Z,83.97
2019-02-17T01:29:51.099Z,83.45
2019-02-17T01:30:51.076Z,83.25
2019-02-17T01:31:51.069Z,82.62
2019-02-17T01:32:51.061Z,83.25
2019-02-17T01:33:51.039Z,82.68
2019-02-17T01:34:51.027Z,82.31
2019-02-17T01:35:51.032Z,81.75
2019-02-17T01:36:51.015Z,81.47
2019-02-17T01:37:50.995Z,81.75
2019-02-17T01:38:50.998Z,81.96
2019-02-17T01:39:50.978Z,82.13
2019-02-17T01:40:50.986Z,81.60
2019-02-17T01:41:50.953Z,81.60
2019-02-17T01:42:50.942Z,81.36
2019-02-17T01:43:50.954Z,80.67
2019-02-17T01:44:51.642Z,81.71
2019-02-17T01:45:50.910Z,81.81
2019-02-17T01:46:50.899Z,81.40
2019-02-17T01:47:50.889Z,81.60
2019-02-17T01:48:50.878Z,81.60
2019-02-17T01:49:50.868Z,81.40
2019-02-17T01:50:50.871Z,81.46
2019-02-17T01:51:50.847Z,80.94
2019-02-17T01:52:50.836Z,80.84
2019-02-17T01:53:50.826Z,80.94
2019-02-17T01:54:50.815Z,81.05
2019-02-17T01:55:50.804Z,81.05
2019-02-17T01:56:50.803Z,81.15
2019-02-17T01:57:50.782Z,81.15
2019-02-17T01:58:50.789Z,80.22
2019-02-17T01:59:50.827Z,79.49
2019-02-17T02:00:50.753Z,79.52
2019-02-17T02:01:50.739Z,79.59
2019-02-17T02:02:50.739Z,80.63
2019-02-17T02:03:50.717Z,81.09
2019-02-17T02:04:50.709Z,81.40
2019-02-17T02:05:50.698Z,81.71
2019-02-17T02:06:50.685Z,81.96
2019-02-17T02:07:50.674Z,81.96
2019-02-17T02:08:50.679Z,81.02
2019-02-17T02:09:50.652Z,80.71
2019-02-17T02:10:50.641Z,80.81
2019-02-17T02:11:50.631Z,80.91
2019-02-17T02:12:50.618Z,80.81
2019-02-17T02:13:50.609Z,80.91
2019-02-17T02:14:50.610Z,81.09
2019-02-17T02:15:50.590Z,80.77
2019-02-17T02:16:50.576Z,80.57
2019-02-17T02:17:50.564Z,80.88
2019-02-17T02:18:50.555Z,80.67
2019-02-17T02:19:50.542Z,80.36
2019-02-17T02:20:50.542Z,80.43
2019-02-17T02:21:50.524Z,80.36
2019-02-17T02:22:50.510Z,80.26
2019-02-17T02:23:50.501Z,80.26
2019-02-17T02:24:50.489Z,80.05
2019-02-17T02:25:50.477Z,80.26
2019-02-17T02:26:50.476Z,80.05
2019-02-17T02:27:50.455Z,80.46
2019-02-17T02:28:50.445Z,80.81
2019-02-17T02:29:50.434Z,80.71
2019-02-17T02:30:50.423Z,80.91
2019-02-17T02:31:50.419Z,81.33
2019-02-17T02:32:50.411Z,81.23
2019-02-17T02:33:50.391Z,81.23
2019-02-17T02:34:50.385Z,81.65
2019-02-17T02:35:50.376Z,81.54
2019-02-17T02:36:50.360Z,81.54
2019-02-17T02:37:50.348Z,81.02
2019-02-17T02:38:50.351Z,81.02
2019-02-17T02:39:50.326Z,80.91
2019-02-17T02:40:50.315Z,81.54
2019-02-17T02:41:50.305Z,81.33
2019-02-17T02:42:50.293Z,81.65
2019-02-17T02:43:50.283Z,81.02
2019-02-17T02:44:50.283Z,80.40
2019-02-17T02:45:50.268Z,80.43
2019-02-17T02:46:50.255Z,80.74
2019-02-17T02:47:50.240Z,81.16
2019-02-17T02:48:50.229Z,80.95
2019-02-17T02:49:50.219Z,81.05
2019-02-17T02:50:50.218Z,80.64
2019-02-17T02:51:50.198Z,80.95
2019-02-17T02:52:50.186Z,80.54
2019-02-17T02:53:50.176Z,80.54
2019-02-17T02:54:50.163Z,80.54
2019-02-17T02:55:50.153Z,80.33
2019-02-17T02:56:50.158Z,81.05
2019-02-17T02:57:50.131Z,80.74
2019-02-17T02:58:50.121Z,80.85
2019-02-17T02:59:52.640Z,81.26
2019-02-17T03:00:50.099Z,81.47
2019-02-17T03:01:50.093Z,81.68
2019-02-17T03:02:50.089Z,81.68
2019-02-17T03:03:50.067Z,81.82
2019-02-17T03:04:50.055Z,81.93
2019-02-17T03:05:50.044Z,82.97
2019-02-17T03:06:50.151Z,83.18
2019-02-17T03:07:50.022Z,83.49
2019-02-17T03:08:50.027Z,84.12
2019-02-17T03:09:50.006Z,83.28
2019-02-17T03:10:49.992Z,82.55
2019-02-17T03:11:49.984Z,82.55
2019-02-17T03:12:49.970Z,82.97
2019-02-17T03:13:49.959Z,82.20
2019-02-17T03:14:49.967Z,82.72
2019-02-17T03:15:49.938Z,82.10
2019-02-17T03:16:49.929Z,82.10
2019-02-17T03:17:49.919Z,82.10
2019-02-17T03:18:49.981Z,82.20
2019-02-17T03:19:49.896Z,82.20
2019-02-17T03:20:49.900Z,82.10
2019-02-17T03:21:49.877Z,82.10
2019-02-17T03:22:49.876Z,82.10
2019-02-17T03:23:49.855Z,81.79
2019-02-17T03:24:49.844Z,81.68
2019-02-17T03:25:49.840Z,81.79
2019-02-17T03:26:49.835Z,82.20
2019-02-17T03:27:49.814Z,82.41
2019-02-17T03:28:49.804Z,82.41
2019-02-17T03:29:49.794Z,81.99
2019-02-17T03:30:49.783Z,81.99
2019-02-17T03:31:49.774Z,82.72
2019-02-17T03:32:49.775Z,81.99
2019-02-17T03:33:49.753Z,82.41
2019-02-17T03:34:49.749Z,82.31
2019-02-17T03:35:49.744Z,81.99
2019-02-17T03:36:49.721Z,81.89
2019-02-17T03:37:49.710Z,82.20
2019-02-17T03:38:49.716Z,82.41
2019-02-17T03:39:49.693Z,82.20
2019-02-17T03:40:49.681Z,82.45
2019-02-17T03:41:49.668Z,82.51
2019-02-17T03:42:49.658Z,82.72
2019-02-17T03:43:49.661Z,82.41
2019-02-17T03:44:49.661Z,82.65
2019-02-17T03:45:49.626Z,82.62
2019-02-17T03:46:49.615Z,82.51
2019-02-17T03:47:49.606Z,82.20
2019-02-17T03:48:49.594Z,82.41
2019-02-17T03:49:49.585Z,81.99
2019-02-17T03:50:49.586Z,82.31
2019-02-17T03:51:49.566Z,82.24
2019-02-17T03:52:49.554Z,82.24
2019-02-17T03:53:49.543Z,82.34
2019-02-17T03:54:49.532Z,82.45
2019-02-17T03:55:49.521Z,82.97
2019-02-17T03:56:49.526Z,82.87
2019-02-17T03:57:49.505Z,83.01
2019-02-17T03:58:49.495Z,82.70
2019-02-17T03:59:49.482Z,83.07
2019-02-17T04:00:49.470Z,82.97
2019-02-17T04:01:49.460Z,83.07
2019-02-17T04:02:49.459Z,82.87
2019-02-17T04:03:49.462Z,82.65
2019-02-17T04:04:49.431Z,82.45
2019-02-17T04:05:49.419Z,82.59
2019-02-17T04:06:49.408Z,82.45
2019-02-17T04:07:49.397Z,83.01
2019-02-17T04:08:49.397Z,82.87
2019-02-17T04:09:49.378Z,82.97
2019-02-17T04:10:49.366Z,82.97
2019-02-17T04:11:49.356Z,83.01
2019-02-17T04:12:49.346Z,82.97
2019-02-17T04:13:49.337Z,82.97
2019-02-17T04:14:49.340Z,82.87
2019-02-17T04:15:49.314Z,82.45
2019-02-17T04:16:49.305Z,82.45
2019-02-17T04:17:49.296Z,82.55
2019-02-17T04:18:49.283Z,82.24
2019-02-17T04:19:49.273Z,82.97
2019-02-17T04:20:49.280Z,82.97
2019-02-17T04:21:49.254Z,82.76
2019-02-17T04:22:49.242Z,82.76
2019-02-17T04:23:49.232Z,82.45
2019-02-17T04:24:49.221Z,82.55
2019-02-17T04:25:49.216Z,82.41
2019-02-17T04:26:49.214Z,82.45
2019-02-17T04:27:49.191Z,82.14
2019-02-17T04:28:49.181Z,81.82
2019-02-17T04:29:49.171Z,82.20
2019-02-17T04:30:49.160Z,81.79
2019-02-17T04:31:49.149Z,82.24
2019-02-17T04:32:49.153Z,81.89
2019-02-17T04:33:49.128Z,81.79
2019-02-17T04:34:49.136Z,81.41
2019-02-17T04:35:49.108Z,81.89
2019-02-17T04:36:49.099Z,81.99
2019-02-17T04:37:49.086Z,82.20
2019-02-17T04:38:49.139Z,82.24
2019-02-17T04:39:49.066Z,82.20
2019-02-17T04:40:49.056Z,82.10
2019-02-17T04:41:49.058Z,82.10
2019-02-17T04:42:49.035Z,82.24
2019-02-17T04:43:49.025Z,82.45
2019-02-17T04:44:49.023Z,82.34
2019-02-17T04:45:49.004Z,83.07
2019-02-17T04:46:48.994Z,82.55
2019-02-17T04:47:48.990Z,82.55
2019-02-17T04:48:48.972Z,82.65
2019-02-17T04:49:48.961Z,82.24
2019-02-17T04:50:48.961Z,82.65
2019-02-17T04:51:48.940Z,82.24
2019-02-17T04:52:48.932Z,82.34
2019-02-17T04:53:48.925Z,82.45
2019-02-17T04:54:48.912Z,82.65
2019-02-17T04:55:48.900Z,82.03
2019-02-17T04:56:48.901Z,82.65
2019-02-17T04:57:48.878Z,82.24
2019-02-17T04:58:48.868Z,82.55
2019-02-17T04:59:48.857Z,82.62
2019-02-17T05:00:50.051Z,81.99
2019-02-17T05:01:48.836Z,82.41
2019-02-17T05:02:48.838Z,82.03
2019-02-17T05:03:48.815Z,82.14
2019-02-17T05:04:48.805Z,82.14
2019-02-17T05:05:48.796Z,82.03
2019-02-17T05:06:48.800Z,82.76
2019-02-17T05:07:48.778Z,82.55
2019-02-17T05:08:48.779Z,82.76
2019-02-17T05:09:48.753Z,82.45
2019-02-17T05:10:48.744Z,82.24
2019-02-17T05:11:48.733Z,82.45
2019-02-17T05:12:48.722Z,82.17
2019-02-17T05:13:48.713Z,82.48
2019-02-17T05:14:48.711Z,82.07
2019-02-17T05:15:48.698Z,82.28
2019-02-17T05:16:48.679Z,82.17
2019-02-17T05:17:48.670Z,82.80
2019-02-17T05:18:48.659Z,82.48
2019-02-17T05:19:48.648Z,82.87
2019-02-17T05:20:48.657Z,82.90
2019-02-17T05:21:48.628Z,82.70
2019-02-17T05:22:48.617Z,83.01
2019-02-17T05:23:48.609Z,83.32
2019-02-17T05:24:48.596Z,82.73
2019-02-17T05:25:48.590Z,83.11
2019-02-17T05:26:48.588Z,83.32
2019-02-17T05:27:48.565Z,83.53
2019-02-17T05:28:48.556Z,83.63
2019-02-17T05:29:48.543Z,83.88
2019-02-17T05:30:52.830Z,83.42
2019-02-17T05:31:48.525Z,83.63
2019-02-17T05:32:48.522Z,83.63
2019-02-17T05:33:48.504Z,83.63
2019-02-17T05:34:48.490Z,83.63
2019-02-17T05:35:48.486Z,83.98
2019-02-17T05:36:48.469Z,84.05
2019-02-17T05:37:48.461Z,84.09
2019-02-17T05:38:48.459Z,84.16
2019-02-17T05:39:48.438Z,84.05
2019-02-17T05:40:48.428Z,83.95
2019-02-17T05:41:48.420Z,84.47
2019-02-17T05:42:48.407Z,84.30
2019-02-17T05:43:48.395Z,84.16
2019-02-17T05:44:48.396Z,84.26
2019-02-17T05:45:48.373Z,84.19
2019-02-17T05:46:48.364Z,84.16
2019-02-17T05:47:48.352Z,84.05
2019-02-17T05:48:48.343Z,84.05
2019-02-17T05:49:48.332Z,83.88
2019-02-17T05:50:48.331Z,84.05
2019-02-17T05:51:48.317Z,83.84
2019-02-17T05:52:48.300Z,83.84
2019-02-17T05:53:48.291Z,84.16
2019-02-17T05:54:50.416Z,84.88
2019-02-17T05:55:48.270Z,83.95
2019-02-17T05:56:48.268Z,83.78
2019-02-17T05:57:48.266Z,83.95
2019-02-17T05:58:48.238Z,84.19
2019-02-17T05:59:48.227Z,83.84
2019-02-17T06:00:48.218Z,84.67
2019-02-17T06:01:48.206Z,83.98
2019-02-17T06:02:48.208Z,84.30
2019-02-17T06:03:48.186Z,84.72
2019-02-17T06:04:48.182Z,84.61
2019-02-17T06:05:48.164Z,84.72
2019-02-17T06:06:48.160Z,84.92
2019-02-17T06:07:48.143Z,85.34
2019-02-17T06:08:48.143Z,84.61
2019-02-17T06:09:48.122Z,84.50
2019-02-17T06:10:48.114Z,84.50
2019-02-17T06:11:48.102Z,84.92
2019-02-17T06:12:48.099Z,85.55
2019-02-17T06:13:48.080Z,85.44
2019-02-17T06:14:48.081Z,85.24
2019-02-17T06:15:48.058Z,85.20
2019-02-17T06:16:48.050Z,85.24
2019-02-17T06:17:48.037Z,85.24
2019-02-17T06:18:48.026Z,85.34
2019-02-17T06:19:48.015Z,85.03
2019-02-17T06:20:48.018Z,85.03
2019-02-17T06:21:47.997Z,85.13
2019-02-17T06:22:47.983Z,84.92
2019-02-17T06:23:47.973Z,85.03
2019-02-17T06:24:47.962Z,85.24
2019-02-17T06:25:47.954Z,85.65
2019-02-17T06:26:47.951Z,85.44
2019-02-17T06:27:47.931Z,85.44
2019-02-17T06:28:47.919Z,84.92
2019-02-17T06:29:49.146Z,85.97
2019-02-17T06:30:47.899Z,85.65
2019-02-17T06:31:47.887Z,85.86
2019-02-17T06:32:47.893Z,85.34
2019-02-17T06:33:47.865Z,85.24
2019-02-17T06:34:47.854Z,85.24
2019-02-17T06:35:47.844Z,85.34
2019-02-17T06:36:47.842Z,85.34
2019-02-17T06:37:47.834Z,85.24
2019-02-17T06:38:47.829Z,85.76
2019-02-17T06:39:47.800Z,85.55
2019-02-17T06:40:47.790Z,85.59
2019-02-17T06:41:47.779Z,85.90
2019-02-17T06:42:47.769Z,86.11
2019-02-17T06:43:47.758Z,86.11
2019-02-17T06:44:47.760Z,85.69
2019-02-17T06:45:47.736Z,85.80
2019-02-17T06:46:47.726Z,86.07
2019-02-17T06:47:47.715Z,85.97
2019-02-17T06:48:47.705Z,86.32
2019-02-17T06:49:47.693Z,86.21
2019-02-17T06:50:47.694Z,86.28
2019-02-17T06:51:47.672Z,85.69
2019-02-17T06:52:47.662Z,86.63
2019-02-17T06:53:47.718Z,86.21
2019-02-17T06:54:47.640Z,87.05
2019-02-17T06:55:47.633Z,86.32
2019-02-17T06:56:47.633Z,86.43
2019-02-17T06:57:47.608Z,86.11
2019-02-17T06:58:47.596Z,86.11
2019-02-17T06:59:47.587Z,86.43
2019-02-17T07:00:47.575Z,86.18
2019-02-17T07:01:47.565Z,86.11
2019-02-17T07:02:47.565Z,85.80
2019-02-17T07:03:47.551Z,86.07
2019-02-17T07:04:47.533Z,85.97
2019-02-17T07:05:47.542Z,85.76
2019-02-17T07:06:47.511Z,85.65
2019-02-17T07:07:47.501Z,85.65
2019-02-17T07:08:47.504Z,85.55
2019-02-17T07:09:47.480Z,85.55
2019-02-17T07:10:47.472Z,85.76
2019-02-17T07:11:47.459Z,85.86
2019-02-17T07:12:47.447Z,86.07
2019-02-17T07:13:47.436Z,85.86
2019-02-17T07:14:47.442Z,85.76
2019-02-17T07:15:47.415Z,84.82
2019-02-17T07:16:47.404Z,85.34
2019-02-17T07:17:47.394Z,84.78
2019-02-17T07:18:47.382Z,85.86
2019-02-17T07:19:47.373Z,85.61
2019-02-17T07:20:47.373Z,85.76
2019-02-17T07:21:47.358Z,85.61
2019-02-17T07:22:47.341Z,85.72
2019-02-17T07:23:47.329Z,85.41
2019-02-17T07:24:47.322Z,85.82
2019-02-17T07:25:47.309Z,84.84
2019-02-17T07:26:47.315Z,85.16
2019-02-17T07:27:47.337Z,85.47
2019-02-17T07:28:47.278Z,85.16
2019-02-17T07:29:47.267Z,84.53
2019-02-17T07:30:47.258Z,84.64
2019-02-17T07:31:47.247Z,84.43
2019-02-17T07:32:47.245Z,84.01
2019-02-17T07:33:47.227Z,84.12
2019-02-17T07:34:47.215Z,84.53
2019-02-17T07:35:47.207Z,84.01
2019-02-17T07:36:47.194Z,83.66
2019-02-17T07:37:47.183Z,83.91
2019-02-17T07:38:47.182Z,84.50
2019-02-17T07:39:47.161Z,83.87
2019-02-17T07:40:47.151Z,84.28
2019-02-17T07:41:47.143Z,83.76
2019-02-17T07:42:47.129Z,84.18
2019-02-17T07:43:47.118Z,84.01
2019-02-17T07:44:47.121Z,83.56
2019-02-17T07:45:47.096Z,83.25
2019-02-17T07:46:47.085Z,83.56
2019-02-17T07:47:47.077Z,83.14
2019-02-17T07:48:47.063Z,82.68
2019-02-17T07:49:47.054Z,82.89
2019-02-17T07:50:47.098Z,82.17
2019-02-17T07:51:47.031Z,82.23
2019-02-17T07:52:47.021Z,81.92
2019-02-17T07:53:47.010Z,81.81
2019-02-17T07:54:47.000Z,81.26
2019-02-17T07:55:46.989Z,81.05
2019-02-17T07:56:48.479Z,80.32
2019-02-17T07:57:46.968Z,80.18
2019-02-17T07:58:46.958Z,79.66
2019-02-17T07:59:46.947Z,79.72
2019-02-17T08:00:46.936Z,78.58
2019-02-17T08:01:46.925Z,78.27
2019-02-17T08:02:46.936Z,77.72
2019-02-17T08:03:46.903Z,77.82
2019-02-17T08:04:46.894Z,77.82
2019-02-17T08:05:46.885Z,77.16
2019-02-17T08:06:46.873Z,77.37
2019-02-17T08:07:46.928Z,78.09
2019-02-17T08:08:46.864Z,77.40
2019-02-17T08:09:46.840Z,77.30
2019-02-17T08:10:46.829Z,78.03
2019-02-17T08:11:46.819Z,78.03
2019-02-17T08:12:46.808Z,78.23
2019-02-17T08:13:46.797Z,77.89
2019-02-17T08:14:46.796Z,77.78
2019-02-17T08:15:46.775Z,78.37
2019-02-17T08:16:46.765Z,78.37
2019-02-17T08:17:46.754Z,77.12
2019-02-17T08:18:46.742Z,76.92
2019-02-17T08:19:46.735Z,77.02
2019-02-17T08:20:46.730Z,76.37
2019-02-17T08:21:46.711Z,77.20
2019-02-17T08:22:46.698Z,76.54
2019-02-17T08:23:46.691Z,76.54
2019-02-17T08:24:46.676Z,76.85
2019-02-17T08:25:46.691Z,77.06
2019-02-17T08:26:46.667Z,77.06
2019-02-17T08:27:46.644Z,76.85
2019-02-17T08:28:46.634Z,77.16
2019-02-17T08:29:46.623Z,76.23
2019-02-17T08:30:46.617Z,77.16
2019-02-17T08:31:55.167Z,76.64
2019-02-17T08:32:47.601Z,76.09
2019-02-17T08:33:46.581Z,75.95
2019-02-17T08:34:46.570Z,75.84
2019-02-17T08:35:46.560Z,75.71
2019-02-17T08:36:46.549Z,76.12
2019-02-17T08:37:46.555Z,74.15
2019-02-17T08:38:46.539Z,74.63
2019-02-17T08:39:46.517Z,74.22
2019-02-17T08:40:46.568Z,72.56
2019-02-17T08:41:46.494Z,73.60
2019-02-17T08:42:46.484Z,72.98
2019-02-17T08:43:46.472Z,72.67
2019-02-17T08:44:46.487Z,72.74
2019-02-17T08:45:46.451Z,73.15
2019-02-17T08:46:46.444Z,72.91
2019-02-17T08:47:46.431Z,72.19
2019-02-17T08:48:46.427Z,72.57
2019-02-17T08:49:46.408Z,72.67
2019-02-17T08:50:46.408Z,73.16
2019-02-17T08:51:46.387Z,72.02
2019-02-17T08:52:46.376Z,71.74
2019-02-17T08:53:46.365Z,71.40
2019-02-17T08:54:46.356Z,70.85
2019-02-17T08:55:46.347Z,70.23
2019-02-17T08:56:46.347Z,70.64
2019-02-17T08:57:46.321Z,69.71
2019-02-17T08:58:46.311Z,69.78
2019-02-17T08:59:46.301Z,68.68
2019-02-17T09:00:46.290Z,69.92
2019-02-17T09:01:46.280Z,69.61
2019-02-17T09:02:46.280Z,69.51
2019-02-17T09:03:46.258Z,68.24
2019-02-17T09:04:46.248Z,68.44
2019-02-17T09:05:46.237Z,68.00
2019-02-17T09:06:46.226Z,68.72
2019-02-17T09:07:46.219Z,68.62
2019-02-17T09:08:46.215Z,68.62
2019-02-17T09:09:46.193Z,68.38
2019-02-17T09:10:46.184Z,67.97
2019-02-17T09:11:46.172Z,66.73
2019-02-17T09:12:46.164Z,66.63
2019-02-17T09:13:46.151Z,66.63
2019-02-17T09:14:46.149Z,65.80
2019-02-17T09:15:46.129Z,64.53
2019-02-17T09:16:46.121Z,65.18
2019-02-17T09:17:46.108Z,65.39
2019-02-17T09:18:46.096Z,66.01
2019-02-17T09:19:46.085Z,64.56
2019-02-17T09:20:46.105Z,65.98
2019-02-17T09:21:46.063Z,65.67
2019-02-17T09:22:46.055Z,64.61
2019-02-17T09:23:46.041Z,64.64
2019-02-17T09:24:46.031Z,64.61
2019-02-17T09:25:46.019Z,65.02
2019-02-17T09:26:46.018Z,64.09
2019-02-17T09:27:45.997Z,63.99
2019-02-17T09:28:45.994Z,64.29
2019-02-17T09:29:45.978Z,64.27
2019-02-17T09:30:45.965Z,64.06
2019-02-17T09:31:45.956Z,64.27
2019-02-17T09:32:45.960Z,63.96
2019-02-17T09:33:45.932Z,64.27
2019-02-17T09:34:45.922Z,63.21
2019-02-17T09:35:45.916Z,63.42
2019-02-17T09:36:45.940Z,63.03
2019-02-17T09:37:45.890Z,63.62
2019-02-17T09:38:45.892Z,63.79
2019-02-17T09:39:45.873Z,63.18
2019-02-17T09:40:45.857Z,63.39
2019-02-17T09:41:45.862Z,62.95
2019-02-17T09:42:45.836Z,62.53
2019-02-17T09:43:45.826Z,62.02
2019-02-17T09:44:45.825Z,62.19
2019-02-17T09:45:45.805Z,61.91
2019-02-17T09:46:45.793Z,61.09
2019-02-17T09:47:45.781Z,62.33
2019-02-17T09:48:45.778Z,62.30
2019-02-17T09:49:45.760Z,62.40
2019-02-17T09:50:45.766Z,61.79
2019-02-17T09:51:45.738Z,62.19
2019-02-17T09:52:45.727Z,62.09
2019-02-17T09:53:45.719Z,61.47
2019-02-17T09:54:45.705Z,61.37
2019-02-17T09:55:45.694Z,61.27
2019-02-17T09:56:45.696Z,61.58
2019-02-17T09:57:45.673Z,61.37
2019-02-17T09:58:45.664Z,61.68
2019-02-17T09:59:45.651Z,61.17
2019-02-17T10:00:45.641Z,61.37
2019-02-17T10:01:45.630Z,61.17
2019-02-17T10:02:45.632Z,61.14
2019-02-17T10:03:45.609Z,61.24
2019-02-17T10:04:45.599Z,61.24
2019-02-17T10:05:45.589Z,61.42
2019-02-17T10:06:45.582Z,60.60
2019-02-17T10:07:45.565Z,60.01
2019-02-17T10:08:45.568Z,61.00
2019-02-17T10:09:45.543Z,60.19
2019-02-17T10:10:45.556Z,59.67
2019-02-17T10:11:45.524Z,59.47
2019-02-17T10:12:45.511Z,59.06
2019-02-17T10:13:45.505Z,59.57
2019-02-17T10:14:45.509Z,59.06
2019-02-17T10:15:45.490Z,60.08
2019-02-17T10:16:45.482Z,60.05
2019-02-17T10:17:45.457Z,59.75
2019-02-17T10:18:45.446Z,59.64
2019-02-17T10:19:45.440Z,59.44
2019-02-17T10:20:45.434Z,59.31
2019-02-17T10:21:45.415Z,59.72
2019-02-17T10:22:45.405Z,59.31
2019-02-17T10:23:45.390Z,59.52
2019-02-17T10:24:45.378Z,58.56
2019-02-17T10:25:45.367Z,58.56
2019-02-17T10:26:45.367Z,59.28
2019-02-17T10:27:45.348Z,58.49
2019-02-17T10:28:45.344Z,58.05
2019-02-17T10:29:45.324Z,58.39
2019-02-17T10:30:45.313Z,58.26
2019-02-17T10:31:45.301Z,58.97
2019-02-17T10:32:45.306Z,59.18
2019-02-17T10:33:45.302Z,57.95
2019-02-17T10:34:45.272Z,57.13
2019-02-17T10:35:45.317Z,56.82
2019-02-17T10:36:45.249Z,57.10
2019-02-17T10:37:45.236Z,57.33
2019-02-17T10:38:45.235Z,57.92
2019-02-17T10:39:45.222Z,57.41
2019-02-17T10:40:45.210Z,56.79
2019-02-17T10:41:45.192Z,57.20
2019-02-17T10:42:45.183Z,56.97
2019-02-17T10:43:45.183Z,56.38
2019-02-17T10:44:45.180Z,57.38
2019-02-17T10:45:45.169Z,56.97
2019-02-17T10:46:45.137Z,57.00
2019-02-17T10:47:45.128Z,56.87
2019-02-17T10:48:45.122Z,57.18
2019-02-17T10:49:45.105Z,56.67
2019-02-17T10:50:45.109Z,56.77
2019-02-17T10:51:45.083Z,56.46
2019-02-17T10:52:45.073Z,57.48
2019-02-17T10:53:45.061Z,57.07
2019-02-17T10:54:45.062Z,57.18
2019-02-17T10:55:45.039Z,57.28
2019-02-17T10:56:45.046Z,57.56
2019-02-17T10:57:45.017Z,56.77
2019-02-17T10:58:45.008Z,56.26
2019-02-17T10:59:44.995Z,55.64
2019-02-17T11:00:44.985Z,56.05
2019-02-17T11:01:44.973Z,56.77
2019-02-17T11:02:47.550Z,57.05
2019-02-17T11:03:44.953Z,57.28
2019-02-17T11:04:44.949Z,56.74
2019-02-17T11:05:44.937Z,57.15
2019-02-17T11:06:44.918Z,56.15
2019-02-17T11:07:44.910Z,56.74
2019-02-17T11:08:44.908Z,57.15
2019-02-17T11:09:44.886Z,56.43
2019-02-17T11:10:44.888Z,56.84
2019-02-17T11:11:44.864Z,56.02
2019-02-17T11:12:44.856Z,56.64
2019-02-17T11:13:44.843Z,56.74
2019-02-17T11:14:44.845Z,56.43
2019-02-17T11:15:44.820Z,56.00
2019-02-17T11:16:44.810Z,56.30
2019-02-17T11:17:44.799Z,55.28
2019-02-17T11:18:44.853Z,56.61
2019-02-17T11:19:44.777Z,55.26
2019-02-17T11:20:44.776Z,55.18
2019-02-17T11:21:44.755Z,55.66
2019-02-17T11:22:44.744Z,56.59
2019-02-17T11:23:44.732Z,56.28
2019-02-17T11:24:44.722Z,55.36
2019-02-17T11:25:44.712Z,55.97
2019-02-17T11:26:44.710Z,55.54
2019-02-17T11:27:44.689Z,55.02
2019-02-17T11:28:44.678Z,55.26
2019-02-17T11:29:44.682Z,55.97
2019-02-17T11:30:44.658Z,55.56
2019-02-17T11:31:44.645Z,55.74
2019-02-17T11:32:44.645Z,56.89
2019-02-17T11:33:44.626Z,55.87
2019-02-17T11:34:44.613Z,56.76
2019-02-17T11:35:44.603Z,56.15
2019-02-17T11:36:44.591Z,55.74
2019-02-17T11:37:45.270Z,55.82
2019-02-17T11:38:44.583Z,55.71
2019-02-17T11:39:44.562Z,56.02
2019-02-17T11:40:44.548Z,55.30
2019-02-17T11:41:44.537Z,55.51
2019-02-17T11:42:44.525Z,55.41
2019-02-17T11:43:44.515Z,54.36
2019-02-17T11:44:44.518Z,54.87
2019-02-17T11:45:44.496Z,53.44
2019-02-17T11:46:44.481Z,53.34
2019-02-17T11:47:44.471Z,53.64
2019-02-17T11:48:44.462Z,52.93
2019-02-17T11:49:44.450Z,52.93
2019-02-17T11:50:44.456Z,54.57
2019-02-17T11:51:44.426Z,53.03
2019-02-17T11:52:44.416Z,53.01
2019-02-17T11:53:44.405Z,53.01
2019-02-17T11:54:44.396Z,53.01
2019-02-17T11:55:44.383Z,53.21
2019-02-17T11:56:44.383Z,53.01
2019-02-17T11:57:44.364Z,52.60
2019-02-17T11:58:44.351Z,52.88
2019-02-17T11:59:44.339Z,52.47
2019-02-17T12:00:44.328Z,51.96
2019-02-17T12:01:44.317Z,51.86
2019-02-17T12:02:44.324Z,52.17
2019-02-17T12:03:44.377Z,52.78
2019-02-17T12:04:44.285Z,52.55
2019-02-17T12:05:44.274Z,52.45
2019-02-17T12:06:44.262Z,52.75
2019-02-17T12:07:44.251Z,52.45
2019-02-17T12:08:44.253Z,51.22
2019-02-17T12:09:44.230Z,51.02
2019-02-17T12:10:44.219Z,52.04
2019-02-17T12:11:44.211Z,51.91
2019-02-17T12:12:44.197Z,51.93
2019-02-17T12:13:44.188Z,52.34
2019-02-17T12:14:44.188Z,52.93
2019-02-17T12:15:44.165Z,52.73
2019-02-17T12:16:44.155Z,52.32
2019-02-17T12:17:44.147Z,52.01
2019-02-17T12:18:44.141Z,51.30
2019-02-17T12:19:44.128Z,51.51
2019-02-17T12:20:44.135Z,51.30
2019-02-17T12:21:44.101Z,51.91
2019-02-17T12:22:44.091Z,51.71
2019-02-17T12:23:44.085Z,51.68
2019-02-17T12:24:44.069Z,51.58
2019-02-17T12:25:44.060Z,52.29
2019-02-17T12:26:44.058Z,50.67
2019-02-17T12:27:44.038Z,50.97
2019-02-17T12:28:44.026Z,51.07
2019-02-17T12:29:44.019Z,51.99
2019-02-17T12:30:44.007Z,50.56
2019-02-17T12:31:44.011Z,50.74
2019-02-17T12:32:44.014Z,51.15
2019-02-17T12:33:43.972Z,50.84
2019-02-17T12:34:43.963Z,50.64
2019-02-17T12:35:43.950Z,50.44
2019-02-17T12:36:43.941Z,50.95
2019-02-17T12:37:43.929Z,50.84
2019-02-17T12:38:43.932Z,50.72
2019-02-17T12:39:43.908Z,50.84
2019-02-17T12:40:43.903Z,51.13
2019-02-17T12:41:43.893Z,50.82
2019-02-17T12:42:43.879Z,49.19
2019-02-17T12:43:43.863Z,49.80
2019-02-17T12:44:43.872Z,50.42
2019-02-17T12:45:43.840Z,49.90
2019-02-17T12:46:43.829Z,49.50
2019-02-17T12:47:43.819Z,49.19
2019-02-17T12:48:43.807Z,50.01
2019-02-17T12:49:43.802Z,49.58
2019-02-17T12:50:43.794Z,49.48
2019-02-17T12:51:43.775Z,48.76
2019-02-17T12:52:47.074Z,49.17